sensor_id;sensor_type;location;lat;lon;timestamp;P1;durP1;ratioP1;P2;durP2;ratioP2
59756;SDS011;45631;51.962;5.974;2023-04-01T00:01:09;6.93;;;1.80;;
59756;SDS011;45631;51.962;5.974;2023-04-01T00:03:41;5.43;;;2.17;;
59756;SDS011;45631;51.962;5.974;2023-04-01T00:06:11;7.20;;;2.13;;
59756;SDS011;45631;51.962;5.974;2023-04-01T00:08:41;6.85;;;2.17;;
59756;SDS011;45631;51.962;5.974;2023-04-01T00:11:10;5.22;;;2.50;;
59756;SDS011;45631;51.962;5.974;2023-04-01T00:13:39;6.40;;;2.42;;
59756;SDS011;45631;51.962;5.974;2023-04-01T00:16:07;8.73;;;2.25;;
59756;SDS011;45631;51.962;5.974;2023-04-01T00:18:49;7.60;;;2.10;;
59756;SDS011;45631;51.962;5.974;2023-04-01T00:21:21;5.95;;;1.98;;
59756;SDS011;45631;51.962;5.974;2023-04-01T00:23:50;6.28;;;2.15;;
59756;SDS011;45631;51.962;5.974;2023-04-01T00:26:18;7.95;;;2.30;;
59756;SDS011;45631;51.962;5.974;2023-04-01T00:28:48;6.28;;;2.47;;
59756;SDS011;45631;51.962;5.974;2023-04-01T00:31:17;5.30;;;2.25;;
59756;SDS011;45631;51.962;5.974;2023-04-01T00:33:45;7.28;;;2.28;;
59756;SDS011;45631;51.962;5.974;2023-04-01T00:36:16;6.00;;;2.28;;
59756;SDS011;45631;51.962;5.974;2023-04-01T00:38:46;6.95;;;2.65;;
59756;SDS011;45631;51.962;5.974;2023-04-01T00:41:15;8.48;;;2.80;;
59756;SDS011;45631;51.962;5.974;2023-04-01T00:43:44;7.57;;;2.78;;
59756;SDS011;45631;51.962;5.974;2023-04-01T00:46:14;8.38;;;3.22;;
59756;SDS011;45631;51.962;5.974;2023-04-01T00:48:43;8.30;;;3.03;;
59756;SDS011;45631;51.962;5.974;2023-04-01T00:51:17;7.22;;;3.17;;
59756;SDS011;45631;51.962;5.974;2023-04-01T00:53:48;6.38;;;3.10;;
59756;SDS011;45631;51.962;5.974;2023-04-01T00:56:19;7.18;;;3.10;;
59756;SDS011;45631;51.962;5.974;2023-04-01T00:58:51;9.70;;;3.60;;
59756;SDS011;45631;51.962;5.974;2023-04-01T01:01:26;7.38;;;3.70;;
59756;SDS011;45631;51.962;5.974;2023-04-01T01:03:57;9.23;;;3.95;;
59756;SDS011;45631;51.962;5.974;2023-04-01T01:06:37;8.63;;;4.28;;
59756;SDS011;45631;51.962;5.974;2023-04-01T01:09:16;7.53;;;4.57;;
59756;SDS011;45631;51.962;5.974;2023-04-01T01:12:00;10.77;;;5.07;;
59756;SDS011;45631;51.962;5.974;2023-04-01T01:14:36;11.23;;;5.68;;
59756;SDS011;45631;51.962;5.974;2023-04-01T01:17:13;12.40;;;6.25;;
59756;SDS011;45631;51.962;5.974;2023-04-01T01:19:52;11.98;;;6.30;;
59756;SDS011;45631;51.962;5.974;2023-04-01T01:23:02;12.27;;;6.95;;
59756;SDS011;45631;51.962;5.974;2023-04-01T01:25:54;12.13;;;7.57;;
59756;SDS011;45631;51.962;5.974;2023-04-01T01:28:40;13.48;;;8.18;;
59756;SDS011;45631;51.962;5.974;2023-04-01T01:31:17;11.00;;;6.85;;
59756;SDS011;45631;51.962;5.974;2023-04-01T01:33:51;14.10;;;7.95;;
59756;SDS011;45631;51.962;5.974;2023-04-01T01:36:27;15.27;;;8.93;;
59756;SDS011;45631;51.962;5.974;2023-04-01T01:39:01;15.57;;;8.60;;
59756;SDS011;45631;51.962;5.974;2023-04-01T01:41:32;13.95;;;8.95;;
59756;SDS011;45631;51.962;5.974;2023-04-01T01:44:03;11.90;;;7.80;;
59756;SDS011;45631;51.962;5.974;2023-04-01T01:46:34;15.63;;;9.25;;
59756;SDS011;45631;51.962;5.974;2023-04-01T01:49:05;13.93;;;8.98;;
59756;SDS011;45631;51.962;5.974;2023-04-01T01:51:39;14.52;;;9.52;;
59756;SDS011;45631;51.962;5.974;2023-04-01T01:54:11;14.10;;;9.55;;
59756;SDS011;45631;51.962;5.974;2023-04-01T01:56:40;15.13;;;8.82;;
59756;SDS011;45631;51.962;5.974;2023-04-01T01:59:13;15.40;;;9.70;;
59756;SDS011;45631;51.962;5.974;2023-04-01T02:01:44;15.10;;;9.82;;
59756;SDS011;45631;51.962;5.974;2023-04-01T02:06:47;16.23;;;9.10;;
59756;SDS011;45631;51.962;5.974;2023-04-01T02:09:20;11.55;;;7.75;;
59756;SDS011;45631;51.962;5.974;2023-04-01T02:11:48;11.18;;;6.35;;
59756;SDS011;45631;51.962;5.974;2023-04-01T02:14:19;11.00;;;5.95;;
59756;SDS011;45631;51.962;5.974;2023-04-01T02:16:51;12.02;;;6.00;;
59756;SDS011;45631;51.962;5.974;2023-04-01T02:19:23;12.45;;;5.32;;
59756;SDS011;45631;51.962;5.974;2023-04-01T02:21:57;14.65;;;5.00;;
59756;SDS011;45631;51.962;5.974;2023-04-01T02:24:30;15.85;;;5.88;;
59756;SDS011;45631;51.962;5.974;2023-04-01T02:27:01;15.00;;;5.00;;
59756;SDS011;45631;51.962;5.974;2023-04-01T02:29:29;14.98;;;5.50;;
59756;SDS011;45631;51.962;5.974;2023-04-01T02:31:57;13.13;;;5.20;;
59756;SDS011;45631;51.962;5.974;2023-04-01T02:34:27;11.93;;;4.95;;
59756;SDS011;45631;51.962;5.974;2023-04-01T02:36:57;13.52;;;5.60;;
59756;SDS011;45631;51.962;5.974;2023-04-01T02:39:25;10.70;;;4.68;;
59756;SDS011;45631;51.962;5.974;2023-04-01T02:41:53;9.10;;;4.35;;
59756;SDS011;45631;51.962;5.974;2023-04-01T02:44:21;9.82;;;5.05;;
59756;SDS011;45631;51.962;5.974;2023-04-01T02:46:50;11.35;;;5.35;;
59756;SDS011;45631;51.962;5.974;2023-04-01T02:49:19;12.57;;;5.63;;
59756;SDS011;45631;51.962;5.974;2023-04-01T02:51:47;14.07;;;5.63;;
59756;SDS011;45631;51.962;5.974;2023-04-01T02:54:17;13.25;;;5.72;;
59756;SDS011;45631;51.962;5.974;2023-04-01T02:56:45;12.20;;;5.70;;
59756;SDS011;45631;51.962;5.974;2023-04-01T02:59:13;12.73;;;5.15;;
59756;SDS011;45631;51.962;5.974;2023-04-01T03:01:44;10.63;;;5.30;;
59756;SDS011;45631;51.962;5.974;2023-04-01T03:04:12;7.60;;;4.35;;
59756;SDS011;45631;51.962;5.974;2023-04-01T03:06:40;8.95;;;4.75;;
59756;SDS011;45631;51.962;5.974;2023-04-01T03:09:08;9.82;;;4.43;;
59756;SDS011;45631;51.962;5.974;2023-04-01T03:11:38;8.02;;;4.00;;
59756;SDS011;45631;51.962;5.974;2023-04-01T03:14:07;8.90;;;4.32;;
59756;SDS011;45631;51.962;5.974;2023-04-01T03:16:35;9.55;;;3.85;;
59756;SDS011;45631;51.962;5.974;2023-04-01T03:19:03;6.45;;;3.47;;
59756;SDS011;45631;51.962;5.974;2023-04-01T03:21:31;7.53;;;3.97;;
59756;SDS011;45631;51.962;5.974;2023-04-01T03:23:59;7.32;;;3.60;;
59756;SDS011;45631;51.962;5.974;2023-04-01T03:26:27;7.60;;;3.80;;
59756;SDS011;45631;51.962;5.974;2023-04-01T03:28:57;7.25;;;4.03;;
59756;SDS011;45631;51.962;5.974;2023-04-01T03:31:25;7.93;;;4.05;;
59756;SDS011;45631;51.962;5.974;2023-04-01T03:33:53;8.35;;;3.95;;
59756;SDS011;45631;51.962;5.974;2023-04-01T03:36:22;6.53;;;3.60;;
59756;SDS011;45631;51.962;5.974;2023-04-01T03:38:50;7.13;;;3.42;;
59756;SDS011;45631;51.962;5.974;2023-04-01T03:41:18;6.70;;;3.80;;
59756;SDS011;45631;51.962;5.974;2023-04-01T03:43:47;6.50;;;3.25;;
59756;SDS011;45631;51.962;5.974;2023-04-01T03:46:18;5.70;;;3.05;;
59756;SDS011;45631;51.962;5.974;2023-04-01T03:48:47;7.00;;;3.35;;
59756;SDS011;45631;51.962;5.974;2023-04-01T03:51:17;6.15;;;3.15;;
59756;SDS011;45631;51.962;5.974;2023-04-01T03:53:45;6.75;;;3.58;;
59756;SDS011;45631;51.962;5.974;2023-04-01T03:56:13;7.05;;;3.30;;
59756;SDS011;45631;51.962;5.974;2023-04-01T03:58:42;7.00;;;3.60;;
59756;SDS011;45631;51.962;5.974;2023-04-01T04:01:13;7.88;;;3.97;;
59756;SDS011;45631;51.962;5.974;2023-04-01T04:03:44;7.88;;;3.70;;
59756;SDS011;45631;51.962;5.974;2023-04-01T04:06:13;8.02;;;4.07;;
59756;SDS011;45631;51.962;5.974;2023-04-01T04:08:44;8.48;;;4.47;;
59756;SDS011;45631;51.962;5.974;2023-04-01T04:11:13;7.63;;;3.72;;
59756;SDS011;45631;51.962;5.974;2023-04-01T04:13:41;6.55;;;3.80;;
59756;SDS011;45631;51.962;5.974;2023-04-01T04:16:10;10.10;;;4.32;;
59756;SDS011;45631;51.962;5.974;2023-04-01T04:18:38;8.48;;;4.18;;
59756;SDS011;45631;51.962;5.974;2023-04-01T04:21:12;7.82;;;4.38;;
59756;SDS011;45631;51.962;5.974;2023-04-01T04:23:42;7.30;;;4.20;;
59756;SDS011;45631;51.962;5.974;2023-04-01T04:26:11;8.07;;;4.25;;
59756;SDS011;45631;51.962;5.974;2023-04-01T04:28:41;8.23;;;4.55;;
59756;SDS011;45631;51.962;5.974;2023-04-01T04:31:09;9.23;;;4.90;;
59756;SDS011;45631;51.962;5.974;2023-04-01T04:33:37;8.63;;;5.07;;
59756;SDS011;45631;51.962;5.974;2023-04-01T04:36:06;8.32;;;5.10;;
59756;SDS011;45631;51.962;5.974;2023-04-01T04:38:36;10.07;;;5.68;;
59756;SDS011;45631;51.962;5.974;2023-04-01T04:41:07;9.57;;;5.55;;
59756;SDS011;45631;51.962;5.974;2023-04-01T04:43:36;9.20;;;5.53;;
59756;SDS011;45631;51.962;5.974;2023-04-01T04:46:05;9.60;;;5.43;;
59756;SDS011;45631;51.962;5.974;2023-04-01T04:48:34;10.18;;;5.95;;
59756;SDS011;45631;51.962;5.974;2023-04-01T04:51:02;11.38;;;6.45;;
59756;SDS011;45631;51.962;5.974;2023-04-01T04:53:30;9.82;;;6.18;;
59756;SDS011;45631;51.962;5.974;2023-04-01T04:56:00;11.10;;;6.13;;
59756;SDS011;45631;51.962;5.974;2023-04-01T04:58:31;9.63;;;6.60;;
59756;SDS011;45631;51.962;5.974;2023-04-01T05:01:04;10.20;;;6.38;;
59756;SDS011;45631;51.962;5.974;2023-04-01T05:03:33;11.20;;;6.45;;
59756;SDS011;45631;51.962;5.974;2023-04-01T05:06:02;9.35;;;6.35;;
59756;SDS011;45631;51.962;5.974;2023-04-01T05:08:30;12.45;;;7.00;;
59756;SDS011;45631;51.962;5.974;2023-04-01T05:11:00;11.38;;;7.28;;
59756;SDS011;45631;51.962;5.974;2023-04-01T05:13:30;11.85;;;7.20;;
59756;SDS011;45631;51.962;5.974;2023-04-01T05:15:58;11.55;;;7.22;;
59756;SDS011;45631;51.962;5.974;2023-04-01T05:18:26;11.10;;;7.22;;
59756;SDS011;45631;51.962;5.974;2023-04-01T05:20:54;13.45;;;7.32;;
59756;SDS011;45631;51.962;5.974;2023-04-01T05:23:22;11.70;;;7.55;;
59756;SDS011;45631;51.962;5.974;2023-04-01T05:25:50;12.07;;;7.32;;
59756;SDS011;45631;51.962;5.974;2023-04-01T05:28:21;11.45;;;7.50;;
59756;SDS011;45631;51.962;5.974;2023-04-01T05:30:49;11.88;;;7.78;;
59756;SDS011;45631;51.962;5.974;2023-04-01T05:33:17;11.02;;;7.30;;
59756;SDS011;45631;51.962;5.974;2023-04-01T05:35:45;12.45;;;7.88;;
59756;SDS011;45631;51.962;5.974;2023-04-01T05:38:13;12.73;;;7.50;;
59756;SDS011;45631;51.962;5.974;2023-04-01T05:40:44;12.00;;;7.80;;
59756;SDS011;45631;51.962;5.974;2023-04-01T05:43:12;12.05;;;8.23;;
59756;SDS011;45631;51.962;5.974;2023-04-01T05:45:42;13.18;;;8.48;;
59756;SDS011;45631;51.962;5.974;2023-04-01T05:48:10;13.48;;;9.00;;
59756;SDS011;45631;51.962;5.974;2023-04-01T05:50:39;14.68;;;9.77;;
59756;SDS011;45631;51.962;5.974;2023-04-01T05:53:08;13.05;;;8.55;;
59756;SDS011;45631;51.962;5.974;2023-04-01T05:55:37;14.40;;;9.77;;
59756;SDS011;45631;51.962;5.974;2023-04-01T05:58:05;12.35;;;8.68;;
59756;SDS011;45631;51.962;5.974;2023-04-01T06:00:33;11.93;;;7.63;;
59756;SDS011;45631;51.962;5.974;2023-04-01T06:03:02;11.93;;;7.20;;
59756;SDS011;45631;51.962;5.974;2023-04-01T06:05:35;11.32;;;6.80;;
59756;SDS011;45631;51.962;5.974;2023-04-01T06:08:09;13.15;;;6.85;;
59756;SDS011;45631;51.962;5.974;2023-04-01T06:10:43;12.68;;;6.88;;
59756;SDS011;45631;51.962;5.974;2023-04-01T06:13:23;12.57;;;7.40;;
59756;SDS011;45631;51.962;5.974;2023-04-01T06:16:05;12.50;;;7.10;;
59756;SDS011;45631;51.962;5.974;2023-04-01T06:18:59;13.52;;;7.00;;
59756;SDS011;45631;51.962;5.974;2023-04-01T06:21:46;15.15;;;7.45;;
59756;SDS011;45631;51.962;5.974;2023-04-01T06:24:34;15.43;;;6.80;;
59756;SDS011;45631;51.962;5.974;2023-04-01T06:27:16;14.52;;;7.70;;
59756;SDS011;45631;51.962;5.974;2023-04-01T06:29:57;16.98;;;8.88;;
59756;SDS011;45631;51.962;5.974;2023-04-01T06:32:41;17.38;;;8.45;;
59756;SDS011;45631;51.962;5.974;2023-04-01T06:35:31;16.25;;;7.38;;
59756;SDS011;45631;51.962;5.974;2023-04-01T06:41:01;17.58;;;7.35;;
59756;SDS011;45631;51.962;5.974;2023-04-01T06:43:47;19.63;;;8.38;;
59756;SDS011;45631;51.962;5.974;2023-04-01T06:46:29;16.50;;;7.75;;
59756;SDS011;45631;51.962;5.974;2023-04-01T06:49:07;19.75;;;9.45;;
59756;SDS011;45631;51.962;5.974;2023-04-01T06:51:51;21.20;;;8.65;;
59756;SDS011;45631;51.962;5.974;2023-04-01T06:54:28;17.75;;;7.90;;
59756;SDS011;45631;51.962;5.974;2023-04-01T06:59:30;19.27;;;9.15;;
59756;SDS011;45631;51.962;5.974;2023-04-01T07:02:01;20.30;;;8.23;;
59756;SDS011;45631;51.962;5.974;2023-04-01T07:04:43;19.83;;;7.55;;
59756;SDS011;45631;51.962;5.974;2023-04-01T07:07:16;17.35;;;8.10;;
59756;SDS011;45631;51.962;5.974;2023-04-01T07:09:52;15.35;;;7.05;;
59756;SDS011;45631;51.962;5.974;2023-04-01T07:12:29;14.43;;;5.97;;
59756;SDS011;45631;51.962;5.974;2023-04-01T07:15:10;14.77;;;6.53;;
59756;SDS011;45631;51.962;5.974;2023-04-01T07:17:43;14.70;;;5.95;;
59756;SDS011;45631;51.962;5.974;2023-04-01T07:20:16;15.40;;;6.53;;
59756;SDS011;45631;51.962;5.974;2023-04-01T07:22:51;11.18;;;5.13;;
59756;SDS011;45631;51.962;5.974;2023-04-01T07:27:52;10.35;;;4.40;;
59756;SDS011;45631;51.962;5.974;2023-04-01T07:30:24;12.57;;;4.30;;
59756;SDS011;45631;51.962;5.974;2023-04-01T07:32:55;9.93;;;4.40;;
59756;SDS011;45631;51.962;5.974;2023-04-01T07:35:33;9.32;;;3.92;;
59756;SDS011;45631;51.962;5.974;2023-04-01T07:38:14;8.90;;;3.92;;
59756;SDS011;45631;51.962;5.974;2023-04-01T07:40:51;8.82;;;3.92;;
59756;SDS011;45631;51.962;5.974;2023-04-01T07:43:42;8.70;;;3.20;;
59756;SDS011;45631;51.962;5.974;2023-04-01T07:46:24;8.73;;;3.10;;
59756;SDS011;45631;51.962;5.974;2023-04-01T07:49:02;6.63;;;2.53;;
59756;SDS011;45631;51.962;5.974;2023-04-01T07:51:36;7.93;;;2.70;;
59756;SDS011;45631;51.962;5.974;2023-04-01T07:54:10;5.53;;;2.42;;
59756;SDS011;45631;51.962;5.974;2023-04-01T07:56:49;5.60;;;2.30;;
59756;SDS011;45631;51.962;5.974;2023-04-01T07:59:23;7.93;;;2.78;;
59756;SDS011;45631;51.962;5.974;2023-04-01T08:02:00;12.02;;;3.83;;
59756;SDS011;45631;51.962;5.974;2023-04-01T08:04:39;9.15;;;4.32;;
59756;SDS011;45631;51.962;5.974;2023-04-01T08:07:20;8.38;;;3.47;;
59756;SDS011;45631;51.962;5.974;2023-04-01T08:09:53;7.85;;;3.33;;
59756;SDS011;45631;51.962;5.974;2023-04-01T08:12:29;8.73;;;3.08;;
59756;SDS011;45631;51.962;5.974;2023-04-01T08:15:12;6.93;;;2.53;;
59756;SDS011;45631;51.962;5.974;2023-04-01T08:17:52;6.10;;;2.63;;
59756;SDS011;45631;51.962;5.974;2023-04-01T08:20:31;6.65;;;2.60;;
59756;SDS011;45631;51.962;5.974;2023-04-01T08:23:05;5.15;;;2.20;;
59756;SDS011;45631;51.962;5.974;2023-04-01T08:25:40;5.10;;;2.15;;
59756;SDS011;45631;51.962;5.974;2023-04-01T08:28:15;5.75;;;2.63;;
59756;SDS011;45631;51.962;5.974;2023-04-01T08:30:49;5.65;;;2.60;;
59756;SDS011;45631;51.962;5.974;2023-04-01T08:33:22;4.97;;;2.33;;
59756;SDS011;45631;51.962;5.974;2023-04-01T08:35:54;4.85;;;2.22;;
59756;SDS011;45631;51.962;5.974;2023-04-01T08:38:28;4.72;;;2.03;;
59756;SDS011;45631;51.962;5.974;2023-04-01T08:41:03;5.53;;;2.55;;
59756;SDS011;45631;51.962;5.974;2023-04-01T08:43:51;4.90;;;2.33;;
59756;SDS011;45631;51.962;5.974;2023-04-01T08:46:40;5.28;;;2.30;;
59756;SDS011;45631;51.962;5.974;2023-04-01T08:49:32;5.95;;;2.30;;
59756;SDS011;45631;51.962;5.974;2023-04-01T08:52:19;6.45;;;2.30;;
59756;SDS011;45631;51.962;5.974;2023-04-01T08:54:59;3.13;;;1.50;;
59756;SDS011;45631;51.962;5.974;2023-04-01T08:57:47;5.00;;;1.35;;
59756;SDS011;45631;51.962;5.974;2023-04-01T09:00:30;3.38;;;1.30;;
59756;SDS011;45631;51.962;5.974;2023-04-01T09:15:13;2.58;;;1.10;;
59756;SDS011;45631;51.962;5.974;2023-04-01T09:18:00;1.33;;;0.85;;
59756;SDS011;45631;51.962;5.974;2023-04-01T09:20:45;1.23;;;0.70;;
59756;SDS011;45631;51.962;5.974;2023-04-01T09:23:33;3.47;;;1.27;;
59756;SDS011;45631;51.962;5.974;2023-04-01T09:26:28;2.53;;;1.10;;
59756;SDS011;45631;51.962;5.974;2023-04-01T09:29:18;2.58;;;1.13;;
59756;SDS011;45631;51.962;5.974;2023-04-01T09:32:03;2.10;;;1.10;;
59756;SDS011;45631;51.962;5.974;2023-04-01T09:34:53;3.22;;;1.48;;
59756;SDS011;45631;51.962;5.974;2023-04-01T09:37:26;2.67;;;1.08;;
59756;SDS011;45631;51.962;5.974;2023-04-01T09:40:08;3.55;;;1.60;;
59756;SDS011;45631;51.962;5.974;2023-04-01T09:42:44;2.40;;;1.15;;
59756;SDS011;45631;51.962;5.974;2023-04-01T09:45:27;3.67;;;1.42;;
59756;SDS011;45631;51.962;5.974;2023-04-01T09:48:17;2.47;;;1.10;;
59756;SDS011;45631;51.962;5.974;2023-04-01T09:51:01;3.22;;;1.50;;
59756;SDS011;45631;51.962;5.974;2023-04-01T09:53:46;2.70;;;1.70;;
59756;SDS011;45631;51.962;5.974;2023-04-01T09:56:29;5.25;;;1.80;;
59756;SDS011;45631;51.962;5.974;2023-04-01T10:05:57;2.55;;;1.25;;
59756;SDS011;45631;51.962;5.974;2023-04-01T10:12:09;2.60;;;1.50;;
59756;SDS011;45631;51.962;5.974;2023-04-01T10:18:22;2.78;;;1.40;;
59756;SDS011;45631;51.962;5.974;2023-04-01T10:28:07;5.47;;;2.38;;
59756;SDS011;45631;51.962;5.974;2023-04-01T10:36:53;5.40;;;2.60;;
59756;SDS011;45631;51.962;5.974;2023-04-01T10:39:29;5.70;;;2.90;;
59756;SDS011;45631;51.962;5.974;2023-04-01T10:45:31;6.35;;;3.33;;
59756;SDS011;45631;51.962;5.974;2023-04-01T10:48:40;8.48;;;3.80;;
59756;SDS011;45631;51.962;5.974;2023-04-01T10:51:45;7.10;;;3.53;;
59756;SDS011;45631;51.962;5.974;2023-04-01T10:54:43;8.13;;;4.18;;
59756;SDS011;45631;51.962;5.974;2023-04-01T10:57:23;8.18;;;4.18;;
59756;SDS011;45631;51.962;5.974;2023-04-01T11:00:19;8.77;;;4.95;;
59756;SDS011;45631;51.962;5.974;2023-04-01T11:12:26;8.88;;;5.20;;
59756;SDS011;45631;51.962;5.974;2023-04-01T11:15:26;10.25;;;5.57;;
59756;SDS011;45631;51.962;5.974;2023-04-01T11:21:28;10.38;;;6.10;;
59756;SDS011;45631;51.962;5.974;2023-04-01T11:27:34;10.45;;;6.13;;
59756;SDS011;45631;51.962;5.974;2023-04-01T11:30:16;10.70;;;5.65;;
59756;SDS011;45631;51.962;5.974;2023-04-01T11:32:54;12.30;;;6.40;;
59756;SDS011;45631;51.962;5.974;2023-04-01T11:35:36;10.77;;;5.50;;
59756;SDS011;45631;51.962;5.974;2023-04-01T11:38:19;8.38;;;4.55;;
59756;SDS011;45631;51.962;5.974;2023-04-01T11:40:59;7.93;;;3.92;;
59756;SDS011;45631;51.962;5.974;2023-04-01T11:43:37;3.30;;;1.58;;
59756;SDS011;45631;51.962;5.974;2023-04-01T11:46:10;3.30;;;1.30;;
59756;SDS011;45631;51.962;5.974;2023-04-01T11:48:56;1.77;;;0.80;;
59756;SDS011;45631;51.962;5.974;2023-04-01T11:51:41;2.17;;;0.93;;
59756;SDS011;45631;51.962;5.974;2023-04-01T11:54:30;1.60;;;0.93;;
59756;SDS011;45631;51.962;5.974;2023-04-01T11:57:15;4.25;;;1.42;;
59756;SDS011;45631;51.962;5.974;2023-04-01T11:59:58;4.75;;;1.60;;
59756;SDS011;45631;51.962;5.974;2023-04-01T12:03:00;4.95;;;1.75;;
59756;SDS011;45631;51.962;5.974;2023-04-01T12:05:41;4.40;;;2.10;;
59756;SDS011;45631;51.962;5.974;2023-04-01T12:08:16;2.72;;;1.20;;
59756;SDS011;45631;51.962;5.974;2023-04-01T12:10:57;2.60;;;1.13;;
59756;SDS011;45631;51.962;5.974;2023-04-01T12:13:33;1.63;;;0.90;;
59756;SDS011;45631;51.962;5.974;2023-04-01T12:16:16;1.20;;;0.90;;
59756;SDS011;45631;51.962;5.974;2023-04-01T12:19:09;2.67;;;1.20;;
59756;SDS011;45631;51.962;5.974;2023-04-01T12:21:48;2.42;;;1.20;;
59756;SDS011;45631;51.962;5.974;2023-04-01T12:24:35;3.28;;;1.35;;
59756;SDS011;45631;51.962;5.974;2023-04-01T12:27:20;2.83;;;1.30;;
59756;SDS011;45631;51.962;5.974;2023-04-01T12:30:08;2.67;;;1.30;;
59756;SDS011;45631;51.962;5.974;2023-04-01T12:32:51;2.95;;;1.40;;
59756;SDS011;45631;51.962;5.974;2023-04-01T12:35:31;2.47;;;1.33;;
59756;SDS011;45631;51.962;5.974;2023-04-01T12:38:15;1.92;;;1.08;;
59756;SDS011;45631;51.962;5.974;2023-04-01T12:40:56;3.10;;;1.20;;
59756;SDS011;45631;51.962;5.974;2023-04-01T12:46:30;2.90;;;1.63;;
59756;SDS011;45631;51.962;5.974;2023-04-01T12:52:10;3.40;;;1.67;;
59756;SDS011;45631;51.962;5.974;2023-04-01T12:57:54;4.07;;;1.95;;
59756;SDS011;45631;51.962;5.974;2023-04-01T13:00:48;6.30;;;3.35;;
59756;SDS011;45631;51.962;5.974;2023-04-01T13:03:46;6.25;;;2.42;;
59756;SDS011;45631;51.962;5.974;2023-04-01T13:06:35;4.43;;;2.40;;
59756;SDS011;45631;51.962;5.974;2023-04-01T13:09:29;4.22;;;2.05;;
59756;SDS011;45631;51.962;5.974;2023-04-01T13:12:18;4.03;;;1.73;;
59756;SDS011;45631;51.962;5.974;2023-04-01T13:18:03;3.88;;;1.60;;
59756;SDS011;45631;51.962;5.974;2023-04-01T13:20:43;2.92;;;1.80;;
59756;SDS011;45631;51.962;5.974;2023-04-01T13:23:29;3.40;;;1.60;;
59756;SDS011;45631;51.962;5.974;2023-04-01T13:26:07;3.75;;;1.88;;
59756;SDS011;45631;51.962;5.974;2023-04-01T13:28:43;4.45;;;2.40;;
59756;SDS011;45631;51.962;5.974;2023-04-01T13:31:26;4.22;;;2.08;;
59756;SDS011;45631;51.962;5.974;2023-04-01T13:34:15;3.72;;;2.03;;
59756;SDS011;45631;51.962;5.974;2023-04-01T13:36:56;3.95;;;1.95;;
59756;SDS011;45631;51.962;5.974;2023-04-01T13:39:40;3.28;;;1.80;;
59756;SDS011;45631;51.962;5.974;2023-04-01T13:42:20;4.30;;;2.03;;
59756;SDS011;45631;51.962;5.974;2023-04-01T13:44:51;3.42;;;1.95;;
59756;SDS011;45631;51.962;5.974;2023-04-01T13:47:27;3.60;;;1.88;;
59756;SDS011;45631;51.962;5.974;2023-04-01T13:56:08;1.50;;;0.80;;
59756;SDS011;45631;51.962;5.974;2023-04-01T13:58:59;2.25;;;0.90;;
59756;SDS011;45631;51.962;5.974;2023-04-01T14:01:38;2.17;;;0.90;;
59756;SDS011;45631;51.962;5.974;2023-04-01T14:04:20;1.50;;;0.80;;
59756;SDS011;45631;51.962;5.974;2023-04-01T14:07:15;2.90;;;1.02;;
59756;SDS011;45631;51.962;5.974;2023-04-01T14:10:02;1.17;;;0.82;;
59756;SDS011;45631;51.962;5.974;2023-04-01T14:12:38;2.70;;;1.00;;
59756;SDS011;45631;51.962;5.974;2023-04-01T14:18:14;2.80;;;1.10;;
59756;SDS011;45631;51.962;5.974;2023-04-01T14:21:02;2.47;;;0.90;;
59756;SDS011;45631;51.962;5.974;2023-04-01T14:23:51;1.92;;;1.10;;
59756;SDS011;45631;51.962;5.974;2023-04-01T14:26:30;1.70;;;1.00;;
59756;SDS011;45631;51.962;5.974;2023-04-01T14:29:12;1.55;;;1.00;;
59756;SDS011;45631;51.962;5.974;2023-04-01T14:31:51;1.63;;;1.00;;
59756;SDS011;45631;51.962;5.974;2023-04-01T14:34:34;2.13;;;1.08;;
59756;SDS011;45631;51.962;5.974;2023-04-01T14:37:14;2.28;;;1.20;;
59756;SDS011;45631;51.962;5.974;2023-04-01T14:42:55;2.97;;;1.42;;
59756;SDS011;45631;51.962;5.974;2023-04-01T14:48:50;2.78;;;1.55;;
59756;SDS011;45631;51.962;5.974;2023-04-01T14:51:22;3.30;;;1.70;;
59756;SDS011;45631;51.962;5.974;2023-04-01T14:54:00;3.33;;;1.70;;
59756;SDS011;45631;51.962;5.974;2023-04-01T14:56:36;4.43;;;2.00;;
59756;SDS011;45631;51.962;5.974;2023-04-01T14:59:09;3.83;;;1.67;;
59756;SDS011;45631;51.962;5.974;2023-04-01T15:04:20;3.70;;;2.05;;
59756;SDS011;45631;51.962;5.974;2023-04-01T15:07:19;4.03;;;1.77;;
59756;SDS011;45631;51.962;5.974;2023-04-01T15:09:59;3.22;;;1.60;;
59756;SDS011;45631;51.962;5.974;2023-04-01T15:12:40;3.92;;;1.35;;
59756;SDS011;45631;51.962;5.974;2023-04-01T15:15:21;3.33;;;1.50;;
59756;SDS011;45631;51.962;5.974;2023-04-01T15:18:04;2.95;;;1.70;;
59756;SDS011;45631;51.962;5.974;2023-04-01T15:20:42;3.50;;;1.63;;
59756;SDS011;45631;51.962;5.974;2023-04-01T15:23:33;2.75;;;1.60;;
59756;SDS011;45631;51.962;5.974;2023-04-01T15:26:29;4.25;;;1.92;;
59756;SDS011;45631;51.962;5.974;2023-04-01T15:29:17;3.63;;;1.90;;
59756;SDS011;45631;51.962;5.974;2023-04-01T15:31:58;3.22;;;2.00;;
59756;SDS011;45631;51.962;5.974;2023-04-01T15:34:32;3.67;;;2.30;;
59756;SDS011;45631;51.962;5.974;2023-04-01T15:37:07;5.22;;;2.70;;
59756;SDS011;45631;51.962;5.974;2023-04-01T15:39:48;3.95;;;2.63;;
59756;SDS011;45631;51.962;5.974;2023-04-01T15:42:25;5.13;;;2.60;;
59756;SDS011;45631;51.962;5.974;2023-04-01T15:45:12;6.68;;;2.85;;
59756;SDS011;45631;51.962;5.974;2023-04-01T15:47:45;5.70;;;2.88;;
59756;SDS011;45631;51.962;5.974;2023-04-01T15:50:47;5.28;;;2.70;;
59756;SDS011;45631;51.962;5.974;2023-04-01T15:53:27;4.13;;;2.40;;
59756;SDS011;45631;51.962;5.974;2023-04-01T15:56:11;4.85;;;2.65;;
59756;SDS011;45631;51.962;5.974;2023-04-01T15:58:51;5.55;;;3.08;;
59756;SDS011;45631;51.962;5.974;2023-04-01T16:01:30;5.35;;;2.97;;
59756;SDS011;45631;51.962;5.974;2023-04-01T16:04:16;5.53;;;3.20;;
59756;SDS011;45631;51.962;5.974;2023-04-01T16:07:03;4.75;;;3.00;;
59756;SDS011;45631;51.962;5.974;2023-04-01T16:09:40;5.40;;;3.20;;
59756;SDS011;45631;51.962;5.974;2023-04-01T16:12:18;5.50;;;3.03;;
59756;SDS011;45631;51.962;5.974;2023-04-01T16:14:53;4.90;;;3.28;;
59756;SDS011;45631;51.962;5.974;2023-04-01T16:17:36;5.72;;;3.50;;
59756;SDS011;45631;51.962;5.974;2023-04-01T16:20:17;6.03;;;3.55;;
59756;SDS011;45631;51.962;5.974;2023-04-01T16:22:49;6.47;;;3.97;;
59756;SDS011;45631;51.962;5.974;2023-04-01T16:25:26;6.60;;;4.10;;
59756;SDS011;45631;51.962;5.974;2023-04-01T16:28:16;7.63;;;3.53;;
59756;SDS011;45631;51.962;5.974;2023-04-01T16:30:50;7.40;;;4.38;;
59756;SDS011;45631;51.962;5.974;2023-04-01T16:33:29;6.95;;;4.03;;
59756;SDS011;45631;51.962;5.974;2023-04-01T16:36:08;6.40;;;3.70;;
59756;SDS011;45631;51.962;5.974;2023-04-01T16:38:40;5.60;;;3.28;;
59756;SDS011;45631;51.962;5.974;2023-04-01T16:41:16;6.10;;;3.25;;
59756;SDS011;45631;51.962;5.974;2023-04-01T16:43:48;6.93;;;3.70;;
59756;SDS011;45631;51.962;5.974;2023-04-01T16:46:27;5.47;;;3.20;;
59756;SDS011;45631;51.962;5.974;2023-04-01T16:49:14;5.95;;;3.42;;
59756;SDS011;45631;51.962;5.974;2023-04-01T16:54:45;6.13;;;3.47;;
59756;SDS011;45631;51.962;5.974;2023-04-01T16:57:21;6.72;;;3.80;;
59756;SDS011;45631;51.962;5.974;2023-04-01T16:59:55;5.75;;;3.20;;
59756;SDS011;45631;51.962;5.974;2023-04-01T17:02:33;6.30;;;3.95;;
59756;SDS011;45631;51.962;5.974;2023-04-01T17:05:06;6.15;;;3.90;;
59756;SDS011;45631;51.962;5.974;2023-04-01T17:07:43;6.45;;;4.00;;
59756;SDS011;45631;51.962;5.974;2023-04-01T17:10:29;5.85;;;3.85;;
59756;SDS011;45631;51.962;5.974;2023-04-01T17:13:18;6.93;;;4.28;;
59756;SDS011;45631;51.962;5.974;2023-04-01T17:16:12;6.82;;;4.38;;
59756;SDS011;45631;51.962;5.974;2023-04-01T17:18:57;6.13;;;4.03;;
59756;SDS011;45631;51.962;5.974;2023-04-01T17:21:39;7.88;;;4.70;;
59756;SDS011;45631;51.962;5.974;2023-04-01T17:24:23;7.53;;;4.68;;